Time;durP1;ratioP1;P1;durP2;ratioP2;P2;SDS_P1;SDS_P2;PMS_P1;PMS_P2;Temp;Humidity;BMP_temperature;BMP_pressure;BME280_temperature;BME280_humidity;BME280_pressure;Samples;Min_cycle;Max_cycle;Signal;HPM_P1;HPM_P2
2021/12/06 00:02:21;;;;;;;22.05;14.07;;;;;;;;;;5049623;28;20025;-75
2021/12/06 00:04:47;;;;;;;25.38;14.57;;;;;;;;;;5035253;28;20427;-75
2021/12/06 00:07:16;;;;;;;21.08;14.40;;;;;;;;;;5044955;28;20041;-76
2021/12/06 00:09:42;;;;;;;22.95;15.13;;;;;;;;;;5040526;28;20033;-75
2021/12/06 00:12:08;;;;;;;28.20;16.48;;;;;;;;;;5045353;28;20116;-75
2021/12/06 00:14:37;;;;;;;23.92;16.85;;;;;;;;;;5046526;28;20032;-76
2021/12/06 00:17:06;;;;;;;24.58;16.83;;;;;;;;;;5050151;28;20037;-75
2021/12/06 00:19:33;;;;;;;24.95;15.85;;;;;;;;;;5047114;28;20036;-75
2021/12/06 00:21:59;;;;;;;26.92;17.33;;;;;;;;;;5067069;28;20151;-76
2021/12/06 00:24:26;;;;;;;23.48;16.10;;;;;;;;;;5061581;28;20063;-75
2021/12/06 00:26:52;;;;;;;23.58;15.50;;;;;;;;;;5072187;28;20048;-75
2021/12/06 00:29:18;;;;;;;23.88;15.77;;;;;;;;;;5068141;28;20112;-75
2021/12/06 00:31:45;;;;;;;25.60;17.02;;;;;;;;;;5064477;28;20111;-75
2021/12/06 00:34:15;;;;;;;25.77;16.52;;;;;;;;;;5064584;28;20033;-75
2021/12/06 00:36:50;;;;;;;28.10;18.67;;;;;;;;;;5078243;28;20024;-76
2021/12/06 00:39:16;;;;;;;24.65;16.02;;;;;;;;;;5060256;28;20340;-75
2021/12/06 00:41:42;;;;;;;27.48;17.73;;;;;;;;;;5058499;28;20032;-75
2021/12/06 00:44:09;;;;;;;31.25;18.95;;;;;;;;;;5070218;28;20073;-75
2021/12/06 00:46:37;;;;;;;26.63;17.27;;;;;;;;;;5054757;28;20037;-75
2021/12/06 00:49:03;;;;;;;29.27;18.48;;;;;;;;;;5055764;28;20535;-75
2021/12/06 00:51:29;;;;;;;32.20;19.63;;;;;;;;;;5064597;28;20043;-75
2021/12/06 00:53:55;;;;;;;29.85;18.95;;;;;;;;;;5054503;28;20033;-75
2021/12/06 00:56:21;;;;;;;33.95;21.05;;;;;;;;;;5061260;28;20398;-74
2021/12/06 00:58:47;;;;;;;32.13;20.33;;;;;;;;;;5057065;28;20033;-74
2021/12/06 01:01:14;;;;;;;30.00;19.13;;;;;;;;;;5064120;28;20032;-74
2021/12/06 01:03:42;;;;;;;30.90;20.90;;;;;;;;;;5070729;28;20016;-74
2021/12/06 01:06:09;;;;;;;33.35;21.05;;;;;;;;;;5064553;28;20028;-74
2021/12/06 01:08:35;;;;;;;35.60;22.23;;;;;;;;;;5062095;28;20031;-74
2021/12/06 01:11:02;;;;;;;35.17;23.00;;;;;;;;;;5064047;28;20048;-76
2021/12/06 01:13:29;;;;;;;35.35;20.63;;;;;;;;;;5065802;28;20079;-74
2021/12/06 01:15:55;;;;;;;37.05;22.40;;;;;;;;;;5062131;28;20389;-74
2021/12/06 01:18:22;;;;;;;34.38;22.42;;;;;;;;;;5063353;28;20036;-75
2021/12/06 01:20:54;;;;;;;36.67;21.90;;;;;;;;;;5059085;28;20060;-75
2021/12/06 01:23:23;;;;;;;40.53;22.73;;;;;;;;;;5065325;28;20051;-75
2021/12/06 01:28:46;;;;;;;36.63;22.17;;;;;;;;;;5064127;28;20029;-74
2021/12/06 01:31:11;;;;;;;36.63;22.13;;;;;;;;;;5075026;28;20037;-75
2021/12/06 01:41:35;;;;;;;38.90;21.85;;;;;;;;;;5065392;28;20063;-75
2021/12/06 01:44:09;;;;;;;37.47;22.23;;;;;;;;;;5074351;28;20554;-74
2021/12/06 01:46:36;;;;;;;37.67;22.30;;;;;;;;;;5068324;28;20885;-75
2021/12/06 01:49:03;;;;;;;36.13;20.95;;;;;;;;;;5073218;28;20036;-75
2021/12/06 01:51:29;;;;;;;36.70;22.80;;;;;;;;;;5061596;28;20040;-75
2021/12/06 01:53:55;;;;;;;37.83;22.08;;;;;;;;;;5056388;28;20128;-75
2021/12/06 01:56:21;;;;;;;36.33;22.27;;;;;;;;;;5067325;28;20067;-75
2021/12/06 01:58:47;;;;;;;34.08;21.60;;;;;;;;;;5065253;28;20060;-74
2021/12/06 02:01:13;;;;;;;42.47;22.23;;;;;;;;;;5071401;28;20040;-75
2021/12/06 02:03:39;;;;;;;34.50;21.55;;;;;;;;;;5059620;28;20394;-75
2021/12/06 02:06:06;;;;;;;36.50;22.45;;;;;;;;;;5065751;28;20041;-75
2021/12/06 02:08:32;;;;;;;37.83;21.50;;;;;;;;;;5059737;28;20028;-74
2021/12/06 02:11:01;;;;;;;38.40;21.77;;;;;;;;;;5068725;28;20044;-75
2021/12/06 02:13:32;;;;;;;36.25;22.27;;;;;;;;;;5070225;28;20041;-74
2021/12/06 02:15:58;;;;;;;38.63;23.52;;;;;;;;;;5066946;28;20129;-75
2021/12/06 02:18:41;;;;;;;36.28;22.55;;;;;;;;;;5068116;28;20387;-75
2021/12/06 02:21:19;;;;;;;35.58;21.45;;;;;;;;;;5066261;28;20107;-75
2021/12/06 02:23:45;;;;;;;41.45;24.05;;;;;;;;;;5070358;28;20039;-75
2021/12/06 02:26:12;;;;;;;35.75;21.05;;;;;;;;;;5073445;28;20067;-75
2021/12/06 02:28:38;;;;;;;38.85;22.60;;;;;;;;;;5070028;28;20032;-75
2021/12/06 02:31:04;;;;;;;40.17;23.42;;;;;;;;;;5041208;28;20040;-74
2021/12/06 02:33:30;;;;;;;42.72;23.45;;;;;;;;;;5070685;28;20036;-74
2021/12/06 02:35:57;;;;;;;41.22;23.10;;;;;;;;;;5060572;28;20036;-75
2021/12/06 02:38:23;;;;;;;42.22;24.77;;;;;;;;;;5068540;28;20138;-80
2021/12/06 02:40:49;;;;;;;39.22;23.67;;;;;;;;;;5068428;28;20020;-75
2021/12/06 02:43:15;;;;;;;38.40;24.65;;;;;;;;;;5062371;28;20055;-75
2021/12/06 02:45:41;;;;;;;40.30;24.88;;;;;;;;;;5061229;28;20032;-74
2021/12/06 02:48:09;;;;;;;40.13;24.00;;;;;;;;;;5066966;28;20036;-76
2021/12/06 02:50:42;;;;;;;37.20;22.38;;;;;;;;;;5059694;28;20044;-76
2021/12/06 02:53:08;;;;;;;40.75;24.00;;;;;;;;;;5063633;28;20028;-76
2021/12/06 02:55:36;;;;;;;42.20;24.98;;;;;;;;;;5067213;28;20037;-76
2021/12/06 02:58:16;;;;;;;43.47;25.33;;;;;;;;;;5068653;28;20028;-75
2021/12/06 03:00:47;;;;;;;48.88;25.23;;;;;;;;;;5067439;28;20438;-75
2021/12/06 03:03:13;;;;;;;41.13;24.10;;;;;;;;;;5056912;28;20037;-76
2021/12/06 03:05:40;;;;;;;40.55;21.98;;;;;;;;;;5069500;28;20075;-75
2021/12/06 03:08:06;;;;;;;44.28;24.88;;;;;;;;;;5056906;28;20033;-75
2021/12/06 03:10:32;;;;;;;47.40;25.42;;;;;;;;;;5062272;28;20116;-75
2021/12/06 03:12:58;;;;;;;41.10;23.20;;;;;;;;;;5058545;28;20036;-75
2021/12/06 03:15:24;;;;;;;44.15;24.15;;;;;;;;;;5081652;28;20492;-75
2021/12/06 03:17:51;;;;;;;41.75;24.08;;;;;;;;;;5062716;28;20589;-75
2021/12/06 03:20:17;;;;;;;37.80;22.65;;;;;;;;;;5063760;28;20069;-75
2021/12/06 03:22:43;;;;;;;44.00;24.58;;;;;;;;;;5039629;28;20058;-75
2021/12/06 03:25:11;;;;;;;40.25;22.77;;;;;;;;;;5035858;28;20026;-75
2021/12/06 03:27:37;;;;;;;40.63;23.35;;;;;;;;;;5045914;28;20036;-75
2021/12/06 03:30:04;;;;;;;43.03;23.02;;;;;;;;;;5050066;28;20044;-75
2021/12/06 03:32:31;;;;;;;40.92;23.58;;;;;;;;;;5042228;28;20037;-76
2021/12/06 03:34:57;;;;;;;43.63;24.98;;;;;;;;;;5040829;28;20048;-76
2021/12/06 03:37:23;;;;;;;42.55;23.63;;;;;;;;;;5043994;28;20618;-76
2021/12/06 03:39:49;;;;;;;42.55;23.67;;;;;;;;;;5044647;28;20132;-75
2021/12/06 03:42:17;;;;;;;43.97;24.05;;;;;;;;;;5045341;28;20033;-75
2021/12/06 03:44:43;;;;;;;39.45;22.58;;;;;;;;;;5045215;28;20041;-75
2021/12/06 03:47:11;;;;;;;46.67;23.88;;;;;;;;;;5041144;28;20025;-75
2021/12/06 03:49:37;;;;;;;44.80;25.48;;;;;;;;;;5042069;28;20021;-75
2021/12/06 03:52:04;;;;;;;40.13;23.00;;;;;;;;;;5041950;28;20525;-75
2021/12/06 03:54:30;;;;;;;45.05;24.77;;;;;;;;;;5042593;28;20025;-75
2021/12/06 03:56:56;;;;;;;48.97;24.35;;;;;;;;;;5041144;28;20041;-75
2021/12/06 03:59:23;;;;;;;47.97;25.48;;;;;;;;;;5041656;28;20029;-75
2021/12/06 04:01:49;;;;;;;46.33;25.15;;;;;;;;;;5045769;28;20025;-75
2021/12/06 04:07:19;;;;;;;49.65;28.33;;;;;;;;;;5035844;28;20063;-76
2021/12/06 04:09:45;;;;;;;52.55;28.88;;;;;;;;;;5043175;28;20025;-76
2021/12/06 04:12:12;;;;;;;49.60;25.95;;;;;;;;;;5043678;28;20025;-75
2021/12/06 04:14:39;;;;;;;49.97;27.00;;;;;;;;;;5041918;28;20454;-75
2021/12/06 04:17:05;;;;;;;53.78;25.77;;;;;;;;;;5041343;28;20128;-76
2021/12/06 04:19:31;;;;;;;49.60;25.10;;;;;;;;;;5038714;28;20104;-76
2021/12/06 04:21:58;;;;;;;48.65;25.40;;;;;;;;;;5056853;28;20490;-76
2021/12/06 04:24:24;;;;;;;53.33;26.60;;;;;;;;;;5059885;28;20040;-76
2021/12/06 04:26:50;;;;;;;53.00;26.60;;;;;;;;;;5063083;28;20047;-75
2021/12/06 04:29:16;;;;;;;51.75;25.05;;;;;;;;;;5069737;28;20042;-76
2021/12/06 04:31:45;;;;;;;50.35;26.45;;;;;;;;;;5062113;28;20037;-76
2021/12/06 04:34:11;;;;;;;50.70;26.90;;;;;;;;;;5061089;28;20428;-77
2021/12/06 04:36:38;;;;;;;50.88;26.55;;;;;;;;;;5063807;28;20025;-76
2021/12/06 04:39:06;;;;;;;48.45;26.33;;;;;;;;;;5072602;28;20062;-76
2021/12/06 04:41:32;;;;;;;46.10;25.17;;;;;;;;;;5070071;28;20494;-76
2021/12/06 04:43:58;;;;;;;48.03;23.88;;;;;;;;;;5062844;28;20120;-77
2021/12/06 04:46:24;;;;;;;48.08;25.98;;;;;;;;;;5064914;28;20136;-76
2021/12/06 04:48:50;;;;;;;48.92;24.65;;;;;;;;;;5061395;28;20029;-76
2021/12/06 04:51:16;;;;;;;45.45;25.30;;;;;;;;;;5058288;28;20035;-75
2021/12/06 04:53:43;;;;;;;43.45;24.80;;;;;;;;;;5063863;28;20043;-75
2021/12/06 04:56:09;;;;;;;50.25;26.35;;;;;;;;;;5060435;28;20024;-75
2021/12/06 04:58:39;;;;;;;48.88;26.05;;;;;;;;;;5060772;28;20031;-76
2021/12/06 05:01:17;;;;;;;49.20;26.05;;;;;;;;;;5056619;28;20099;-75
2021/12/06 05:03:43;;;;;;;47.25;24.92;;;;;;;;;;5062676;28;20120;-76
2021/12/06 05:06:11;;;;;;;45.40;25.30;;;;;;;;;;5066014;28;20032;-75
2021/12/06 05:08:40;;;;;;;45.10;25.52;;;;;;;;;;5070361;28;20029;-75
2021/12/06 05:11:07;;;;;;;44.05;24.45;;;;;;;;;;5059273;28;20414;-75
2021/12/06 05:13:34;;;;;;;48.72;26.02;;;;;;;;;;5064750;28;20047;-75
2021/12/06 05:16:00;;;;;;;48.05;24.85;;;;;;;;;;5059928;28;20103;-75
2021/12/06 05:18:26;;;;;;;45.13;24.80;;;;;;;;;;5060897;28;20064;-75
2021/12/06 05:20:52;;;;;;;50.08;24.95;;;;;;;;;;5061155;28;20040;-74
2021/12/06 05:23:19;;;;;;;50.85;25.30;;;;;;;;;;5059336;28;20028;-75
2021/12/06 05:25:45;;;;;;;48.67;25.23;;;;;;;;;;5067696;28;20030;-75
2021/12/06 05:28:11;;;;;;;47.70;24.65;;;;;;;;;;5069603;28;20032;-75
2021/12/06 05:30:38;;;;;;;43.88;23.10;;;;;;;;;;5055253;28;20032;-75
2021/12/06 05:33:06;;;;;;;49.65;24.38;;;;;;;;;;5065582;28;20056;-75
2021/12/06 05:35:32;;;;;;;48.75;24.50;;;;;;;;;;5063844;28;20052;-75
2021/12/06 05:37:59;;;;;;;47.92;25.05;;;;;;;;;;5060015;28;20031;-76
2021/12/06 05:40:27;;;;;;;46.13;24.83;;;;;;;;;;5057051;28;20043;-76
2021/12/06 05:42:53;;;;;;;49.05;24.58;;;;;;;;;;5064327;28;20728;-76
2021/12/06 05:45:21;;;;;;;51.00;26.23;;;;;;;;;;5061660;28;20036;-76
2021/12/06 05:47:47;;;;;;;46.92;23.48;;;;;;;;;;5067517;28;20102;-76
2021/12/06 05:50:14;;;;;;;48.45;25.73;;;;;;;;;;5062088;28;20111;-76
2021/12/06 05:52:40;;;;;;;47.17;25.60;;;;;;;;;;5066019;28;20035;-75
2021/12/06 05:55:08;;;;;;;49.78;25.45;;;;;;;;;;5062561;28;20035;-76
2021/12/06 05:57:34;;;;;;;47.33;24.90;;;;;;;;;;5065159;28;20530;-75
2021/12/06 06:00:00;;;;;;;45.45;25.92;;;;;;;;;;5065950;28;20032;-75
2021/12/06 06:02:26;;;;;;;50.33;25.73;;;;;;;;;;5059324;28;20056;-74
2021/12/06 06:04:52;;;;;;;42.92;22.65;;;;;;;;;;5061326;28;20036;-74
2021/12/06 06:07:18;;;;;;;49.00;25.02;;;;;;;;;;5067457;28;20494;-74
2021/12/06 06:09:44;;;;;;;46.00;24.65;;;;;;;;;;5061899;28;20037;-75
2021/12/06 06:12:10;;;;;;;46.45;25.10;;;;;;;;;;5059080;28;20037;-75
2021/12/06 06:14:36;;;;;;;51.17;23.98;;;;;;;;;;5062705;28;20032;-74
2021/12/06 06:17:12;;;;;;;57.75;27.48;;;;;;;;;;5054578;28;20048;-74
2021/12/06 06:19:40;;;;;;;52.47;26.95;;;;;;;;;;5066517;28;20024;-75
2021/12/06 06:22:06;;;;;;;53.70;27.83;;;;;;;;;;5061400;28;20591;-75
2021/12/06 06:24:32;;;;;;;46.22;24.08;;;;;;;;;;5070402;28;20024;-75
2021/12/06 06:26:58;;;;;;;56.17;26.77;;;;;;;;;;5064006;28;20036;-75
2021/12/06 06:29:24;;;;;;;55.20;27.48;;;;;;;;;;5066059;28;20479;-75
2021/12/06 06:31:50;;;;;;;51.15;25.73;;;;;;;;;;5071462;28;20041;-75
2021/12/06 06:34:16;;;;;;;50.65;27.98;;;;;;;;;;5069264;28;20055;-74
2021/12/06 06:36:42;;;;;;;58.40;27.90;;;;;;;;;;5063628;28;20108;-74
2021/12/06 06:39:10;;;;;;;55.25;27.95;;;;;;;;;;5065508;28;20483;-74
2021/12/06 06:41:36;;;;;;;56.80;26.80;;;;;;;;;;5052088;28;20216;-74
2021/12/06 06:44:02;;;;;;;58.83;29.50;;;;;;;;;;5062277;28;20033;-74
2021/12/06 06:46:28;;;;;;;60.70;30.17;;;;;;;;;;5060499;28;20125;-74
2021/12/06 06:48:56;;;;;;;56.03;28.20;;;;;;;;;;5069452;28;20446;-74
2021/12/06 06:51:24;;;;;;;60.45;28.45;;;;;;;;;;5063302;28;20493;-74
2021/12/06 06:53:51;;;;;;;56.95;28.08;;;;;;;;;;5064270;28;20447;-74
2021/12/06 06:56:17;;;;;;;64.80;29.08;;;;;;;;;;5064960;28;20024;-74
2021/12/06 06:58:43;;;;;;;61.95;29.63;;;;;;;;;;5068300;28;20032;-74
2021/12/06 07:01:09;;;;;;;58.38;29.77;;;;;;;;;;5058152;28;20394;-74
2021/12/06 07:03:35;;;;;;;56.78;28.98;;;;;;;;;;5063241;28;20020;-75
2021/12/06 07:06:02;;;;;;;60.40;27.13;;;;;;;;;;5061569;28;20505;-74
2021/12/06 07:08:28;;;;;;;57.35;27.92;;;;;;;;;;5059497;28;20032;-74
2021/12/06 07:10:55;;;;;;;57.47;26.48;;;;;;;;;;5069070;28;20522;-74
2021/12/06 07:13:21;;;;;;;54.92;28.08;;;;;;;;;;5061000;28;20034;-75
2021/12/06 07:15:48;;;;;;;56.40;27.88;;;;;;;;;;5068497;28;20033;-74
2021/12/06 07:18:14;;;;;;;57.85;29.13;;;;;;;;;;5062086;28;20402;-74
2021/12/06 07:20:40;;;;;;;51.28;27.17;;;;;;;;;;5069016;28;20049;-74
2021/12/06 07:23:06;;;;;;;52.45;26.58;;;;;;;;;;5065873;28;20025;-75
2021/12/06 07:25:34;;;;;;;54.45;28.35;;;;;;;;;;5087078;28;20028;-75
2021/12/06 07:28:00;;;;;;;49.15;26.55;;;;;;;;;;5061981;28;20020;-74
2021/12/06 07:30:26;;;;;;;55.63;25.63;;;;;;;;;;5048998;28;20059;-74
2021/12/06 07:32:54;;;;;;;53.53;28.08;;;;;;;;;;5062697;28;20028;-74
2021/12/06 07:35:20;;;;;;;48.03;26.23;;;;;;;;;;5062348;28;20025;-73
2021/12/06 07:37:46;;;;;;;50.90;26.48;;;;;;;;;;5065193;28;20055;-75
2021/12/06 07:40:13;;;;;;;55.63;25.63;;;;;;;;;;5067158;28;20056;-74
2021/12/06 07:42:39;;;;;;;51.35;26.75;;;;;;;;;;5070051;28;20036;-74
2021/12/06 07:45:06;;;;;;;50.38;25.98;;;;;;;;;;5067469;28;20056;-74
2021/12/06 07:47:36;;;;;;;60.80;26.38;;;;;;;;;;5071090;28;20464;-75
2021/12/06 07:50:03;;;;;;;53.60;26.20;;;;;;;;;;5066346;28;20558;-75
2021/12/06 07:52:29;;;;;;;52.75;26.08;;;;;;;;;;5069852;28;20496;-76
2021/12/06 07:54:58;;;;;;;55.38;25.35;;;;;;;;;;5064470;28;20049;-75
2021/12/06 07:57:24;;;;;;;56.00;26.20;;;;;;;;;;5057996;28;20095;-74
2021/12/06 07:59:50;;;;;;;54.63;27.05;;;;;;;;;;5064834;28;20422;-75
2021/12/06 08:02:16;;;;;;;52.97;25.65;;;;;;;;;;5062337;28;20826;-74
2021/12/06 08:04:42;;;;;;;59.53;28.00;;;;;;;;;;5059168;28;20025;-75
2021/12/06 08:07:08;;;;;;;56.70;25.83;;;;;;;;;;5054962;28;20096;-75
2021/12/06 08:09:34;;;;;;;58.47;27.75;;;;;;;;;;5064264;28;20028;-74
2021/12/06 08:12:00;;;;;;;60.13;26.98;;;;;;;;;;5064087;28;20099;-74
2021/12/06 08:14:27;;;;;;;79.68;34.85;;;;;;;;;;5061255;28;20069;-75
2021/12/06 08:16:53;;;;;;;116.70;52.97;;;;;;;;;;5059982;28;20040;-74
2021/12/06 08:19:19;;;;;;;66.10;31.40;;;;;;;;;;5064591;28;20123;-74
2021/12/06 08:21:45;;;;;;;62.47;30.83;;;;;;;;;;5057112;28;20115;-75
2021/12/06 08:24:11;;;;;;;66.65;30.30;;;;;;;;;;5055798;28;20029;-74
2021/12/06 08:26:39;;;;;;;66.03;30.13;;;;;;;;;;5057913;28;20086;-75
2021/12/06 08:29:06;;;;;;;66.63;30.40;;;;;;;;;;5059985;28;20037;-74
2021/12/06 08:31:33;;;;;;;75.97;31.85;;;;;;;;;;5057712;28;20098;-74
2021/12/06 08:33:59;;;;;;;69.43;29.85;;;;;;;;;;5055863;28;20044;-75
2021/12/06 08:36:25;;;;;;;75.35;29.50;;;;;;;;;;5055033;28;20033;-75
2021/12/06 08:38:52;;;;;;;65.05;28.92;;;;;;;;;;5061739;28;20027;-74
2021/12/06 08:41:22;;;;;;;74.45;29.00;;;;;;;;;;5057609;28;20025;-75
2021/12/06 08:43:49;;;;;;;74.15;31.35;;;;;;;;;;5060564;28;20178;-75
2021/12/06 08:46:17;;;;;;;67.30;28.65;;;;;;;;;;5060832;28;20528;-75
2021/12/06 08:48:44;;;;;;;70.90;30.33;;;;;;;;;;5066262;28;20055;-75
2021/12/06 08:51:13;;;;;;;78.38;30.13;;;;;;;;;;5060594;28;20032;-75
2021/12/06 08:53:40;;;;;;;68.90;28.70;;;;;;;;;;5066461;28;20087;-74
2021/12/06 08:56:06;;;;;;;64.45;27.75;;;;;;;;;;5062615;28;20040;-76
2021/12/06 08:58:33;;;;;;;77.43;29.85;;;;;;;;;;5058034;28;20033;-76
2021/12/06 09:00:59;;;;;;;99.15;42.65;;;;;;;;;;5060669;28;20036;-75
2021/12/06 09:03:25;;;;;;;79.30;31.75;;;;;;;;;;5062412;28;20028;-75
2021/12/06 09:05:53;;;;;;;74.75;30.05;;;;;;;;;;5060648;28;20367;-74
2021/12/06 09:08:19;;;;;;;78.75;31.70;;;;;;;;;;5064754;28;20033;-75
2021/12/06 09:10:49;;;;;;;68.22;30.58;;;;;;;;;;5062289;28;20111;-75
2021/12/06 09:13:16;;;;;;;72.70;30.80;;;;;;;;;;5043785;28;20035;-75
2021/12/06 09:15:42;;;;;;;70.95;31.00;;;;;;;;;;5062785;28;20043;-74
2021/12/06 09:18:08;;;;;;;73.65;31.08;;;;;;;;;;5063629;28;20402;-75
2021/12/06 09:20:36;;;;;;;75.13;30.42;;;;;;;;;;5062863;28;20102;-75
2021/12/06 09:23:04;;;;;;;77.28;31.77;;;;;;;;;;5060730;28;20021;-74
2021/12/06 09:25:30;;;;;;;72.97;30.75;;;;;;;;;;5060624;28;20040;-74
2021/12/06 09:27:57;;;;;;;78.57;31.25;;;;;;;;;;5057801;28;20041;-75
2021/12/06 09:30:26;;;;;;;145.27;65.35;;;;;;;;;;5066760;28;20044;-75
2021/12/06 09:32:53;;;;;;;80.55;32.92;;;;;;;;;;5066157;28;20028;-75
2021/12/06 09:35:24;;;;;;;76.80;30.55;;;;;;;;;;5067893;28;20036;-75
2021/12/06 09:37:50;;;;;;;75.60;32.63;;;;;;;;;;5055919;28;20060;-74
2021/12/06 09:40:17;;;;;;;67.20;30.58;;;;;;;;;;5064542;28;20029;-74
2021/12/06 09:42:44;;;;;;;74.30;30.88;;;;;;;;;;5060269;28;20536;-75
2021/12/06 09:45:12;;;;;;;71.30;31.58;;;;;;;;;;5051389;28;20040;-75
2021/12/06 09:47:38;;;;;;;70.88;30.65;;;;;;;;;;5062329;28;20111;-75
2021/12/06 09:50:05;;;;;;;64.72;30.08;;;;;;;;;;5053093;28;20040;-74
2021/12/06 09:52:31;;;;;;;58.42;26.92;;;;;;;;;;5062188;28;20051;-75
2021/12/06 09:54:58;;;;;;;65.38;28.35;;;;;;;;;;5065771;28;20112;-75
2021/12/06 09:57:24;;;;;;;61.00;27.98;;;;;;;;;;5068536;28;20040;-75
2021/12/06 09:59:50;;;;;;;61.30;27.13;;;;;;;;;;5058236;28;20028;-75
2021/12/06 10:02:18;;;;;;;57.50;26.88;;;;;;;;;;5059690;28;20072;-75
2021/12/06 10:04:48;;;;;;;53.58;25.30;;;;;;;;;;5062631;28;20478;-74
2021/12/06 10:07:15;;;;;;;57.13;26.40;;;;;;;;;;5055390;28;20436;-75
2021/12/06 10:09:42;;;;;;;56.63;25.80;;;;;;;;;;5063168;28;20402;-76
2021/12/06 10:12:09;;;;;;;53.03;24.92;;;;;;;;;;5065151;28;20028;-76
2021/12/06 10:14:36;;;;;;;50.38;24.27;;;;;;;;;;5066916;28;20082;-75
2021/12/06 10:17:03;;;;;;;50.20;24.95;;;;;;;;;;5058562;28;20111;-76
2021/12/06 10:19:29;;;;;;;49.25;23.10;;;;;;;;;;5061822;28;20037;-76
2021/12/06 10:21:57;;;;;;;49.47;25.35;;;;;;;;;;5069730;28;20083;-76
2021/12/06 10:24:25;;;;;;;56.42;25.55;;;;;;;;;;5066786;28;20108;-75
2021/12/06 10:27:01;;;;;;;87.20;44.15;;;;;;;;;;5070424;28;20468;-81
2021/12/06 10:29:33;;;;;;;49.08;25.75;;;;;;;;;;5053245;28;20033;-76
2021/12/06 10:31:59;;;;;;;47.15;23.38;;;;;;;;;;5065855;28;20539;-75
2021/12/06 10:34:27;;;;;;;60.30;26.45;;;;;;;;;;5062376;28;20076;-75
2021/12/06 10:36:54;;;;;;;59.55;28.17;;;;;;;;;;5060788;28;20025;-74
2021/12/06 10:39:22;;;;;;;58.17;26.98;;;;;;;;;;5067634;28;20397;-74
2021/12/06 10:41:49;;;;;;;61.67;28.65;;;;;;;;;;5062754;28;20063;-75
2021/12/06 10:44:15;;;;;;;69.97;30.13;;;;;;;;;;5062608;28;20041;-75
2021/12/06 10:46:50;;;;;;;67.15;30.40;;;;;;;;;;5066181;28;20035;-75
2021/12/06 10:49:19;;;;;;;59.25;29.23;;;;;;;;;;5056140;28;20107;-74
2021/12/06 10:51:45;;;;;;;66.38;29.73;;;;;;;;;;5067069;28;20047;-75
2021/12/06 10:54:33;;;;;;;61.97;30.33;;;;;;;;;;5066246;28;20043;-76
2021/12/06 10:57:02;;;;;;;53.40;26.48;;;;;;;;;;5076409;28;20169;-76
2021/12/06 10:59:30;;;;;;;49.92;24.83;;;;;;;;;;5059644;28;20056;-75
2021/12/06 11:01:58;;;;;;;52.63;25.55;;;;;;;;;;5056820;28;20033;-75
2021/12/06 11:04:26;;;;;;;51.00;24.02;;;;;;;;;;5060403;28;20036;-75
2021/12/06 11:06:53;;;;;;;48.65;25.58;;;;;;;;;;5059478;28;20032;-75
2021/12/06 11:09:23;;;;;;;44.78;20.83;;;;;;;;;;5066586;28;20974;-75
2021/12/06 11:11:54;;;;;;;42.67;20.70;;;;;;;;;;5063163;28;20039;-75
2021/12/06 11:14:22;;;;;;;41.03;21.02;;;;;;;;;;5055609;28;20025;-75
2021/12/06 11:16:55;;;;;;;42.78;22.20;;;;;;;;;;5067910;28;20070;-75
2021/12/06 11:19:23;;;;;;;43.72;20.65;;;;;;;;;;5070373;28;20082;-74
2021/12/06 11:21:51;;;;;;;41.40;21.52;;;;;;;;;;5063338;28;20040;-75
2021/12/06 11:24:17;;;;;;;52.83;23.33;;;;;;;;;;5049287;28;20107;-75
2021/12/06 11:27:03;;;;;;;51.17;24.58;;;;;;;;;;5061552;28;20120;-75
2021/12/06 11:29:42;;;;;;;49.70;23.70;;;;;;;;;;5057368;28;20111;-75
2021/12/06 11:32:13;;;;;;;39.05;20.52;;;;;;;;;;5061939;28;20098;-74
2021/12/06 11:34:43;;;;;;;42.45;22.67;;;;;;;;;;5062347;28;20131;-75
2021/12/06 11:37:13;;;;;;;44.63;22.05;;;;;;;;;;5053947;28;20029;-74
2021/12/06 11:39:39;;;;;;;45.97;23.38;;;;;;;;;;5062450;28;20032;-75
2021/12/06 11:42:05;;;;;;;45.70;22.85;;;;;;;;;;5068469;28;20048;-75
2021/12/06 11:44:33;;;;;;;45.65;23.90;;;;;;;;;;5068888;28;23469;-75
2021/12/06 11:46:59;;;;;;;51.22;24.35;;;;;;;;;;5069602;28;20520;-74
2021/12/06 11:49:30;;;;;;;54.42;23.17;;;;;;;;;;5060520;28;20033;-75
2021/12/06 11:51:57;;;;;;;52.17;23.60;;;;;;;;;;5052675;28;20040;-75
2021/12/06 11:54:23;;;;;;;53.95;25.73;;;;;;;;;;5066878;28;20063;-75
2021/12/06 11:56:51;;;;;;;56.38;24.77;;;;;;;;;;5068548;28;20114;-75
2021/12/06 11:59:18;;;;;;;60.47;27.63;;;;;;;;;;5073061;28;20042;-74
2021/12/06 12:01:51;;;;;;;44.38;24.23;;;;;;;;;;5071187;28;20098;-74
2021/12/06 12:04:17;;;;;;;;;;;;;;;;;;5063538;28;20032;-74
2021/12/06 12:06:44;;;;;;;56.17;25.60;;;;;;;;;;5064317;28;19920;-74
2021/12/06 12:09:13;;;;;;;59.67;26.48;;;;;;;;;;5055975;28;20036;-75
2021/12/06 12:12:01;;;;;;;60.97;27.27;;;4.10;99.90;;;;;;5060235;28;20028;-74
2021/12/06 12:14:28;;;;;;;62.20;29.65;;;;;;;;;;5060173;28;20050;-75
2021/12/06 12:16:54;;;;;;;63.75;27.80;;;;;;;;;;5065632;28;20044;-75
2021/12/06 12:19:21;;;;;;;90.15;46.78;;;;;;;;;;5055980;28;20089;-77
2021/12/06 12:21:47;;;;;;;88.38;38.30;;;;;;;;;;5063250;28;20040;-75
2021/12/06 12:24:13;;;;;;;61.28;27.85;;;;;;;;;;5061935;28;20063;-75
2021/12/06 12:26:54;;;;;;;61.83;28.40;;;;;;;;;;5060791;28;20043;-74
2021/12/06 12:29:25;;;;;;;74.95;31.85;;;;;;;;;;5048859;28;20091;-75
2021/12/06 12:31:53;;;;;;;70.30;31.00;;;;;;;;;;5082172;28;20035;-75
2021/12/06 12:34:19;;;;;;;69.28;30.38;;;;;;;;;;5047285;28;20052;-75
2021/12/06 12:36:45;;;;;;;66.80;29.23;;;;;;;;;;5060950;28;20021;-75
2021/12/06 12:39:18;;;;;;;65.03;30.38;;;;;;;;;;5063067;28;20071;-75
2021/12/06 12:41:48;;;;;;;61.83;28.02;;;;;;;;;;5050663;28;20033;-75
2021/12/06 12:44:16;;;;;;;62.33;28.33;;;;;;;;;;5062509;28;20032;-75
2021/12/06 12:46:45;;;;;;;64.53;30.42;;;;;;;;;;5069356;28;20052;-75
2021/12/06 12:49:13;;;;;;;54.70;25.25;;;;;;;;;;5060809;28;20028;-75
2021/12/06 12:51:44;;;;;;;57.80;26.08;;;;;;;;;;5070999;28;20070;-76
2021/12/06 12:54:18;;;;;;;64.15;30.38;;;;;;;;;;5058055;28;20036;-76
2021/12/06 12:56:46;;;;;;;67.82;29.33;;;;;;;;;;5060873;28;20528;-76
2021/12/06 12:59:27;;;;;;;63.22;27.67;;;;;;;;;;5054867;28;20070;-76
2021/12/06 13:02:11;;;;;;;64.53;29.92;;;;;;;;;;5064315;28;20016;-76
2021/12/06 13:04:56;;;;;;;72.55;30.60;;;;;;;;;;5064015;28;20024;-77
2021/12/06 13:07:22;;;;;;;73.80;32.45;;;;;;;;;;5060186;28;20049;-77
2021/12/06 13:09:48;;;;;;;71.60;35.15;;;;;;;;;;5054606;28;20106;-77
2021/12/06 13:12:16;;;;;;;68.88;32.50;;;;;;;;;;5065876;28;20049;-77
2021/12/06 13:14:48;;;;;;;59.90;29.77;;;;;;;;;;5066121;28;20116;-82
2021/12/06 13:17:24;;;;;;;68.43;31.63;;;;;;;;;;5067569;28;20036;-77
2021/12/06 13:20:06;;;;;;;63.15;31.85;;;;;;;;;;5064188;28;20024;-77
2021/12/06 13:22:32;;;;;;;67.83;33.10;;;;;;;;;;5076501;28;20121;-77
2021/12/06 13:25:03;;;;;;;64.53;29.85;;;;;;;;;;5060892;28;20119;-77
2021/12/06 13:27:31;;;;;;;57.60;30.23;;;;;;;;;;5060836;28;20032;-76
2021/12/06 13:29:59;;;;;;;53.53;28.23;;;;;;;;;;5067292;28;20097;-76
2021/12/06 13:32:31;;;;;;;55.83;24.67;;;;;;;;;;5063633;28;20491;-77
2021/12/06 13:35:31;;;;;;;60.60;28.77;;;4.00;99.90;;;;;;5069125;28;20139;-77
2021/12/06 13:38:09;;;;;;;58.45;26.67;;;;;;;;;;5063347;28;20037;-77
2021/12/06 13:40:41;;;;;;;54.90;26.75;;;;;;;;;;5059980;28;20032;-77
2021/12/06 13:43:30;;;;;;;59.58;27.85;;;;;;;;;;5060726;28;20028;-77
2021/12/06 13:45:58;;;;;;;60.42;28.63;;;;;;;;;;5050788;28;20047;-77
2021/12/06 13:48:33;;;;;;;58.17;29.40;;;;;;;;;;5056796;28;20032;-77
2021/12/06 13:51:00;;;;;;;57.28;27.80;;;;;;;;;;5059206;28;20028;-77
2021/12/06 13:53:29;;;;;;;64.93;30.63;;;;;;;;;;5060809;28;20483;-78
2021/12/06 13:55:57;;;;;;;62.88;27.90;;;;;;;;;;5061971;28;20079;-77
2021/12/06 13:58:23;;;;;;;63.80;29.48;;;;;;;;;;5057380;28;20040;-77
2021/12/06 14:00:50;;;;;;;75.70;35.90;;;;;;;;;;5060949;28;20078;-80
2021/12/06 14:03:28;;;;;;;68.70;32.63;;;;;;;;;;5066295;28;20037;-77
2021/12/06 14:05:54;;;;;;;68.18;33.50;;;;;;;;;;5066629;28;20112;-78
2021/12/06 14:08:21;;;;;;;62.92;30.30;;;;;;;;;;5064244;28;20154;-77
2021/12/06 14:10:47;;;;;;;65.75;28.98;;;;;;;;;;5060963;28;20064;-77
2021/12/06 14:13:14;;;;;;;65.95;30.00;;;;;;;;;;5052825;28;20462;-78
2021/12/06 14:15:50;;;;;;;60.95;29.58;;;;;;;;;;5074829;28;20028;-77
2021/12/06 14:18:18;;;;;;;65.45;29.20;;;;;;;;;;5047510;28;20040;-77
2021/12/06 14:20:48;;;;;;;67.93;31.67;;;;;;;;;;5077129;28;20035;-78
2021/12/06 14:23:15;;;;;;;61.78;29.17;;;;;;;;;;5056475;28;20021;-76
2021/12/06 14:25:48;;;;;;;62.63;29.13;;;;;;;;;;5063695;28;20029;-77
2021/12/06 14:28:14;;;;;;;65.03;29.70;;;;;;;;;;5059366;28;20063;-76
2021/12/06 14:30:41;;;;;;;55.53;28.23;;;;;;;;;;5061578;28;20094;-77
2021/12/06 14:33:07;;;;;;;63.75;29.20;;;;;;;;;;5061607;28;20060;-77
2021/12/06 14:35:33;;;;;;;51.50;26.17;;;;;;;;;;5066030;28;20067;-77